createdAt,value
2019-05-02T00:00:51.750Z,100.00
2019-05-02T00:03:18.403Z,100.00
2019-05-02T00:05:44.558Z,100.00
2019-05-02T00:08:10.485Z,100.00
2019-05-02T00:10:36.835Z,100.00
2019-05-02T00:13:03.382Z,100.00
2019-05-02T00:15:33.112Z,100.00
2019-05-02T00:18:01.459Z,100.00
2019-05-02T00:20:25.848Z,100.00
2019-05-02T00:22:53.457Z,100.00
2019-05-02T00:25:19.441Z,100.00
2019-05-02T00:27:45.306Z,100.00
2019-05-02T00:30:12.744Z,100.00
2019-05-02T00:32:38.605Z,100.00
2019-05-02T00:35:04.955Z,100.00
2019-05-02T00:37:30.819Z,100.00
2019-05-02T00:39:56.668Z,100.00
2019-05-02T00:42:24.040Z,100.00
2019-05-02T00:44:50.677Z,100.00
2019-05-02T00:47:18.550Z,100.00
2019-05-02T00:49:46.401Z,100.00
2019-05-02T00:52:12.453Z,100.00
2019-05-02T00:54:38.289Z,100.00
2019-05-02T00:57:04.142Z,100.00
2019-05-02T00:59:30.075Z,100.00
2019-05-02T01:01:59.949Z,100.00
2019-05-02T01:04:30.555Z,100.00
2019-05-02T01:06:56.599Z,100.00
2019-05-02T01:09:22.552Z,100.00
2019-05-02T01:11:48.677Z,100.00
2019-05-02T01:14:14.633Z,100.00
2019-05-02T01:16:40.469Z,100.00
2019-05-02T01:19:06.430Z,100.00
2019-05-02T01:21:34.094Z,100.00
2019-05-02T01:24:03.111Z,100.00
2019-05-02T01:26:30.605Z,100.00
2019-05-02T01:29:07.432Z,100.00
2019-05-02T01:31:37.856Z,100.00
2019-05-02T01:34:22.115Z,100.00
2019-05-02T01:36:49.857Z,100.00
2019-05-02T01:39:15.681Z,100.00
2019-05-02T01:41:41.555Z,100.00
2019-05-02T01:44:07.603Z,100.00
2019-05-02T01:46:33.570Z,100.00
2019-05-02T01:48:59.402Z,100.00
2019-05-02T01:51:25.343Z,100.00
2019-05-02T01:53:51.265Z,100.00
2019-05-02T01:56:17.203Z,100.00
2019-05-02T01:58:43.028Z,100.00
2019-05-02T02:01:08.990Z,100.00
2019-05-02T02:03:34.931Z,100.00
2019-05-02T02:06:02.905Z,100.00
2019-05-02T02:08:32.559Z,100.00
2019-05-02T02:10:58.247Z,100.00
2019-05-02T02:13:24.218Z,100.00
2019-05-02T02:15:50.176Z,100.00
2019-05-02T02:18:17.214Z,100.00
2019-05-02T02:20:48.814Z,100.00
2019-05-02T02:23:32.572Z,100.00
2019-05-02T02:26:06.941Z,100.00
2019-05-02T02:28:33.111Z,100.00
2019-05-02T02:31:05.084Z,100.00
2019-05-02T02:33:27.062Z,100.00
2019-05-02T02:35:53.265Z,100.00
2019-05-02T02:38:19.273Z,100.00
2019-05-02T02:40:45.158Z,100.00
2019-05-02T02:43:32.375Z,100.00
2019-05-02T02:45:51.720Z,100.00
2019-05-02T02:48:16.941Z,100.00
2019-05-02T02:50:44.897Z,100.00
2019-05-02T02:53:10.551Z,100.00
2019-05-02T02:55:36.481Z,100.00
2019-05-02T02:58:04.783Z,100.00
2019-05-02T03:00:30.673Z,100.00
2019-05-02T03:02:56.638Z,100.00
2019-05-02T03:05:26.131Z,100.00
2019-05-02T03:07:50.424Z,100.00
2019-05-02T03:10:16.364Z,100.00
2019-05-02T03:13:00.751Z,100.00
2019-05-02T03:15:29.782Z,100.00
2019-05-02T03:18:00.059Z,100.00
2019-05-02T03:20:23.620Z,100.00
2019-05-02T03:22:49.576Z,100.00
2019-05-02T03:25:18.190Z,100.00
2019-05-02T03:27:43.381Z,100.00
2019-05-02T03:30:09.310Z,100.00
2019-05-02T03:32:36.384Z,100.00
2019-05-02T03:35:02.753Z,100.00
2019-05-02T03:37:28.689Z,100.00
2019-05-02T03:40:00.167Z,100.00
2019-05-02T03:42:22.681Z,100.00
2019-05-02T03:44:54.633Z,100.00
2019-05-02T03:47:16.493Z,100.00
2019-05-02T03:49:48.922Z,100.00
2019-05-02T03:52:10.109Z,100.00
2019-05-02T03:54:49.049Z,100.00
2019-05-02T03:57:03.830Z,100.00
2019-05-02T03:59:38.247Z,100.00
2019-05-02T04:01:57.822Z,100.00
2019-05-02T04:04:23.811Z,100.00
2019-05-02T04:06:55.001Z,100.00
2019-05-02T04:09:32.029Z,100.00
2019-05-02T04:11:55.256Z,100.00
2019-05-02T04:14:36.798Z,100.00
2019-05-02T04:16:55.149Z,100.00
2019-05-02T04:19:17.003Z,100.00
2019-05-02T04:21:43.027Z,100.00
2019-05-02T04:24:15.215Z,100.00
2019-05-02T04:26:37.168Z,100.00
2019-05-02T04:29:03.621Z,100.00
2019-05-02T04:31:31.605Z,100.00
2019-05-02T04:33:57.645Z,100.00
2019-05-02T04:36:23.489Z,100.00
2019-05-02T04:38:52.430Z,100.00
2019-05-02T04:41:28.310Z,100.00
2019-05-02T04:43:54.716Z,100.00
2019-05-02T04:46:22.376Z,100.00
2019-05-02T04:48:48.306Z,100.00
2019-05-02T04:51:14.162Z,100.00
2019-05-02T04:53:42.115Z,100.00
2019-05-02T04:56:06.970Z,100.00
2019-05-02T04:58:36.501Z,100.00
2019-05-02T05:01:01.809Z,100.00
2019-05-02T05:03:28.499Z,100.00
2019-05-02T05:05:59.496Z,100.00
2019-05-02T05:08:26.464Z,100.00
2019-05-02T05:10:49.907Z,100.00
2019-05-02T05:13:19.416Z,100.00
2019-05-02T05:15:48.705Z,100.00
2019-05-02T05:18:14.461Z,100.00
2019-05-02T05:20:40.522Z,100.00
2019-05-02T05:23:08.215Z,100.00
2019-05-02T05:25:42.159Z,100.00
2019-05-02T05:28:09.111Z,100.00
2019-05-02T05:30:37.719Z,100.00
2019-05-02T05:33:03.011Z,100.00
2019-05-02T05:35:28.940Z,100.00
2019-05-02T05:37:54.756Z,100.00
2019-05-02T05:40:22.528Z,100.00
2019-05-02T05:42:48.546Z,100.00
2019-05-02T05:45:14.599Z,100.00
2019-05-02T05:47:40.432Z,100.00
2019-05-02T05:50:08.272Z,100.00
2019-05-02T05:52:38.741Z,100.00
2019-05-02T05:55:05.000Z,100.00
2019-05-02T05:57:30.977Z,100.00
2019-05-02T05:59:58.432Z,100.00
2019-05-02T06:02:24.634Z,100.00
2019-05-02T06:04:55.322Z,100.00
2019-05-02T06:07:20.164Z,100.00
2019-05-02T06:09:46.214Z,100.00
2019-05-02T06:12:12.264Z,100.00
2019-05-02T06:14:38.148Z,100.00
2019-05-02T06:17:03.997Z,100.00
2019-05-02T06:19:29.950Z,100.00
2019-05-02T06:21:55.899Z,100.00
2019-05-02T06:24:21.835Z,100.00
2019-05-02T06:26:49.646Z,100.00
2019-05-02T06:29:18.670Z,100.00
2019-05-02T06:31:44.414Z,100.00
2019-05-02T06:34:10.347Z,100.00
2019-05-02T06:36:36.822Z,100.00
2019-05-02T06:39:04.768Z,100.00
2019-05-02T06:41:30.802Z,100.00
2019-05-02T06:43:56.669Z,100.00
2019-05-02T06:46:27.793Z,100.00
2019-05-02T06:48:52.268Z,100.00
2019-05-02T06:51:20.823Z,100.00
2019-05-02T06:53:47.109Z,100.00
2019-05-02T06:56:14.108Z,100.00
2019-05-02T06:58:42.078Z,100.00
2019-05-02T07:01:08.016Z,100.00
2019-05-02T07:03:33.973Z,100.00
2019-05-02T07:06:02.733Z,98.19
2019-05-02T07:08:27.669Z,97.62
2019-05-02T07:10:55.837Z,98.05
2019-05-02T07:13:21.371Z,100.00
2019-05-02T07:15:49.332Z,100.00
2019-05-02T07:18:20.311Z,100.00
2019-05-02T07:20:46.243Z,99.81
2019-05-02T07:23:16.681Z,99.98
2019-05-02T07:25:43.900Z,99.66
2019-05-02T07:28:09.428Z,97.76
2019-05-02T07:30:36.313Z,97.85
2019-05-02T07:33:02.481Z,97.57
2019-05-02T07:35:28.513Z,97.89
2019-05-02T07:37:54.494Z,94.45
2019-05-02T07:40:20.420Z,95.94
2019-05-02T07:42:46.363Z,94.34
2019-05-02T07:45:12.399Z,92.63
2019-05-02T07:47:40.201Z,87.94
2019-05-02T07:50:10.294Z,88.04
2019-05-02T07:52:34.937Z,87.62
2019-05-02T07:55:02.462Z,87.92
2019-05-02T07:57:30.578Z,85.19
2019-05-02T08:00:00.453Z,80.06
2019-05-02T08:02:25.163Z,79.01
2019-05-02T08:04:51.988Z,77.37
2019-05-02T08:07:21.100Z,77.33
2019-05-02T08:09:45.665Z,79.04
2019-05-02T08:12:12.186Z,76.13
2019-05-02T08:14:38.153Z,76.79
2019-05-02T08:17:05.701Z,74.94
2019-05-02T08:19:31.829Z,75.07
2019-05-02T08:21:57.772Z,74.52
2019-05-02T08:24:23.819Z,74.10
2019-05-02T08:26:53.534Z,74.59
2019-05-02T08:29:23.407Z,74.76
2019-05-02T08:31:47.168Z,71.24
2019-05-02T08:34:14.988Z,70.65
2019-05-02T08:36:40.756Z,71.75
2019-05-02T08:39:06.619Z,71.62
2019-05-02T08:41:32.440Z,71.83
2019-05-02T08:43:58.407Z,73.51
2019-05-02T08:46:24.251Z,73.38
2019-05-02T08:48:50.767Z,73.09
2019-05-02T08:51:16.833Z,71.83
2019-05-02T08:53:42.756Z,72.54
2019-05-02T08:56:08.587Z,72.90
2019-05-02T08:58:34.512Z,72.07
2019-05-02T09:01:00.466Z,69.44
2019-05-02T09:03:26.432Z,69.90
2019-05-02T09:06:04.961Z,68.59
2019-05-02T09:08:20.339Z,68.99
2019-05-02T09:10:46.316Z,68.35
2019-05-02T09:13:15.837Z,69.74
2019-05-02T09:15:49.790Z,68.05
2019-05-02T09:18:07.940Z,67.49
2019-05-02T09:20:33.906Z,67.28
2019-05-02T09:23:01.623Z,67.96
2019-05-02T09:25:27.723Z,68.40
2019-05-02T09:27:53.560Z,67.68
2019-05-02T09:30:22.723Z,66.73
2019-05-02T09:32:47.671Z,66.64
2019-05-02T09:35:13.620Z,66.85
2019-05-02T09:37:41.704Z,65.42
2019-05-02T09:40:12.550Z,64.02
2019-05-02T09:42:35.454Z,63.40
2019-05-02T09:45:03.200Z,61.00
2019-05-02T09:47:33.201Z,61.69
2019-05-02T09:50:12.856Z,60.55
2019-05-02T09:52:39.652Z,60.68
2019-05-02T09:55:06.946Z,60.46
2019-05-02T09:57:32.818Z,60.71
2019-05-02T09:59:58.735Z,58.98
2019-05-02T10:02:25.276Z,60.44
2019-05-02T10:04:52.377Z,60.80
2019-05-02T10:07:18.389Z,61.37
2019-05-02T10:09:44.426Z,59.83
2019-05-02T10:12:12.245Z,59.36
2019-05-02T10:14:38.215Z,54.08
2019-05-02T10:17:07.077Z,53.58
2019-05-02T10:19:32.704Z,53.51
2019-05-02T10:21:58.885Z,54.52
2019-05-02T10:24:24.869Z,54.58
2019-05-02T10:26:55.242Z,54.26
2019-05-02T10:29:22.835Z,51.61
2019-05-02T10:31:46.444Z,54.14
2019-05-02T10:34:16.351Z,54.50
2019-05-02T10:36:43.322Z,52.20
2019-05-02T10:39:07.951Z,52.12
2019-05-02T10:41:39.657Z,51.85
2019-05-02T10:44:02.306Z,48.13
2019-05-02T10:46:33.472Z,47.79
2019-05-02T10:49:14.368Z,48.14
2019-05-02T10:51:41.772Z,46.89
2019-05-02T10:54:08.250Z,45.33
2019-05-02T10:56:34.331Z,48.64
2019-05-02T10:59:02.252Z,45.88
2019-05-02T11:01:30.075Z,46.26
2019-05-02T11:03:58.048Z,46.85
2019-05-02T11:06:23.984Z,43.18
2019-05-02T11:08:49.934Z,45.00
2019-05-02T11:11:15.871Z,44.97
2019-05-02T11:13:43.713Z,45.96
2019-05-02T11:16:12.446Z,44.69
2019-05-02T11:18:49.475Z,44.36
2019-05-02T11:21:15.490Z,44.20
2019-05-02T11:23:41.940Z,43.81
2019-05-02T11:26:07.967Z,43.08
2019-05-02T11:28:33.816Z,44.70
2019-05-02T11:31:02.653Z,44.09
2019-05-02T11:33:27.899Z,40.28
2019-05-02T11:35:53.823Z,40.17
2019-05-02T11:38:36.978Z,40.41
2019-05-02T11:40:47.629Z,41.72
2019-05-02T11:43:13.591Z,41.24
2019-05-02T11:45:39.507Z,42.88
2019-05-02T11:48:09.189Z,43.66
2019-05-02T11:50:35.414Z,44.25
2019-05-02T11:53:02.881Z,43.73
2019-05-02T11:55:29.180Z,42.90
2019-05-02T11:57:55.122Z,41.49
2019-05-02T12:00:21.841Z,42.86
2019-05-02T12:02:54.210Z,40.80
2019-05-02T12:05:19.572Z,41.62
2019-05-02T12:07:45.610Z,41.14
2019-05-02T12:10:12.517Z,40.74
2019-05-02T12:12:38.611Z,40.76
2019-05-02T12:15:04.671Z,40.78
2019-05-02T12:17:32.549Z,42.23
2019-05-02T12:19:58.463Z,41.24
2019-05-02T12:22:24.410Z,42.19
2019-05-02T12:24:51.865Z,40.95
2019-05-02T12:27:17.799Z,39.53
2019-05-02T12:29:43.636Z,40.96
2019-05-02T12:32:09.581Z,40.47
2019-05-02T12:34:35.451Z,41.08
2019-05-02T12:37:01.809Z,41.80
2019-05-02T12:39:27.646Z,44.65
2019-05-02T12:41:54.225Z,45.49
2019-05-02T12:44:22.281Z,46.20
2019-05-02T12:46:48.381Z,45.23
2019-05-02T12:49:24.345Z,44.59
2019-05-02T12:51:42.857Z,45.04
2019-05-02T12:54:08.995Z,45.12
2019-05-02T12:56:34.824Z,45.24
2019-05-02T12:59:02.362Z,46.58
2019-05-02T13:01:28.527Z,45.46
2019-05-02T13:03:56.599Z,43.89
2019-05-02T13:06:22.549Z,43.34
2019-05-02T13:08:48.518Z,44.54
2019-05-02T13:11:26.732Z,45.15
2019-05-02T13:13:53.363Z,46.33
2019-05-02T13:16:19.530Z,47.08
2019-05-02T13:18:45.455Z,46.68
2019-05-02T13:21:16.850Z,44.98
2019-05-02T13:23:43.060Z,44.89
2019-05-02T13:26:18.148Z,44.73
2019-05-02T13:28:37.140Z,43.78
2019-05-02T13:31:22.378Z,42.83
2019-05-02T13:34:06.537Z,43.86
2019-05-02T13:36:45.386Z,42.86
2019-05-02T13:39:17.885Z,41.48
2019-05-02T13:41:43.925Z,41.89
2019-05-02T13:44:12.854Z,41.78
2019-05-02T13:46:38.853Z,42.17
2019-05-02T13:49:04.817Z,42.37
2019-05-02T13:51:32.112Z,42.38
2019-05-02T13:53:58.708Z,41.79
2019-05-02T13:56:26.551Z,42.89
2019-05-02T13:58:52.493Z,43.14
2019-05-02T14:01:18.644Z,43.25
2019-05-02T14:03:44.679Z,42.46
2019-05-02T14:06:12.391Z,41.59
2019-05-02T14:08:53.358Z,43.06
2019-05-02T14:11:40.920Z,41.91
2019-05-02T14:14:05.757Z,41.58
2019-05-02T14:16:32.120Z,42.26
2019-05-02T14:18:58.062Z,43.88
2019-05-02T14:21:23.883Z,44.09
2019-05-02T14:23:51.691Z,44.16
2019-05-02T14:26:29.635Z,44.45
2019-05-02T14:28:45.638Z,44.69
2019-05-02T14:31:11.943Z,44.22
2019-05-02T14:33:39.713Z,43.96
2019-05-02T14:36:05.670Z,41.81
2019-05-02T14:38:32.134Z,41.11
2019-05-02T14:41:06.365Z,42.91
2019-05-02T14:43:53.061Z,42.87
2019-05-02T14:46:21.954Z,41.45
2019-05-02T14:48:48.109Z,42.07
2019-05-02T14:51:16.687Z,41.11
2019-05-02T14:53:43.060Z,40.40
2019-05-02T14:56:12.501Z,41.12
2019-05-02T14:58:39.153Z,40.63
2019-05-02T15:01:05.311Z,41.21
2019-05-02T15:03:32.486Z,39.94
2019-05-02T15:05:58.958Z,39.67
2019-05-02T15:08:26.397Z,40.20
2019-05-02T15:10:56.468Z,39.95
2019-05-02T15:13:20.104Z,41.38
2019-05-02T15:18:15.836Z,41.67
2019-05-02T15:20:39.524Z,41.29
2019-05-02T15:23:07.267Z,42.35
2019-05-02T15:25:33.254Z,43.01
2019-05-02T15:28:02.026Z,43.44
2019-05-02T15:30:26.912Z,42.56
2019-05-02T15:32:57.648Z,41.95
2019-05-02T15:35:27.023Z,41.58
2019-05-02T15:37:56.527Z,39.88
2019-05-02T15:42:48.635Z,39.60
2019-05-02T15:45:15.003Z,38.81
2019-05-02T15:47:41.684Z,39.21
2019-05-02T15:50:09.011Z,39.77
2019-05-02T15:52:36.859Z,39.41
2019-05-02T15:55:04.951Z,40.94
2019-05-02T15:57:40.932Z,40.54
2019-05-02T15:59:58.698Z,40.58
2019-05-02T16:02:26.856Z,42.01
2019-05-02T16:04:57.141Z,42.62
2019-05-02T16:07:22.385Z,43.36
2019-05-02T16:09:51.602Z,45.35
2019-05-02T16:12:16.075Z,44.84
2019-05-02T16:14:42.566Z,47.00
2019-05-02T16:17:08.679Z,46.90
2019-05-02T16:19:36.477Z,46.69
2019-05-02T16:22:06.854Z,47.98
2019-05-02T16:24:32.224Z,48.54
2019-05-02T16:26:58.068Z,48.34
2019-05-02T16:29:28.191Z,48.80
2019-05-02T16:32:05.664Z,48.95
2019-05-02T16:34:34.434Z,50.52
2019-05-02T16:37:16.253Z,50.63
2019-05-02T16:39:42.615Z,51.81
2019-05-02T16:42:07.664Z,51.87
2019-05-02T16:44:33.599Z,51.70
2019-05-02T16:46:59.458Z,51.46
2019-05-02T16:49:25.343Z,50.89
2019-05-02T16:51:52.939Z,49.07
2019-05-02T16:54:19.053Z,49.19
2019-05-02T16:56:46.045Z,49.90
2019-05-02T16:59:12.621Z,50.86
2019-05-02T17:01:38.678Z,50.80
2019-05-02T17:04:06.700Z,51.01
2019-05-02T17:06:34.050Z,51.45
2019-05-02T17:09:18.513Z,51.67
2019-05-02T17:11:45.866Z,51.88
2019-05-02T17:14:13.404Z,51.89
2019-05-02T17:16:39.427Z,52.33
2019-05-02T17:19:05.431Z,52.04
2019-05-02T17:21:51.433Z,52.69
2019-05-02T17:23:59.369Z,52.83
2019-05-02T17:26:28.093Z,52.94
2019-05-02T17:28:54.021Z,52.66
2019-05-02T17:31:21.117Z,52.96
2019-05-02T17:33:50.938Z,53.35
2019-05-02T17:36:15.404Z,53.85
2019-05-02T17:38:42.028Z,54.02
2019-05-02T17:41:08.074Z,54.40
2019-05-02T17:43:37.448Z,54.66
2019-05-02T17:46:01.915Z,54.66
2019-05-02T17:48:29.400Z,54.86
2019-05-02T17:51:13.824Z,54.76
2019-05-02T17:53:45.500Z,55.13
2019-05-02T17:56:14.592Z,55.92
2019-05-02T17:58:35.621Z,57.47
2019-05-02T18:01:03.397Z,57.27
2019-05-02T18:03:30.954Z,57.48
2019-05-02T18:05:57.069Z,57.71
2019-05-02T18:08:23.068Z,57.81
2019-05-02T18:10:50.539Z,58.77
2019-05-02T18:13:16.961Z,58.93
2019-05-02T18:15:42.824Z,60.07
2019-05-02T18:18:08.698Z,59.67
2019-05-02T18:20:37.253Z,60.25
2019-05-02T18:23:05.718Z,59.95
2019-05-02T18:25:30.631Z,60.90
2019-05-02T18:27:56.579Z,59.12
2019-05-02T18:30:26.831Z,59.05
2019-05-02T18:32:52.713Z,58.91
2019-05-02T18:35:18.674Z,59.32
2019-05-02T18:37:46.833Z,62.02
2019-05-02T18:40:13.018Z,61.93
2019-05-02T18:42:38.866Z,61.21
2019-05-02T18:45:08.287Z,61.95
2019-05-02T18:47:34.178Z,62.66
2019-05-02T18:50:02.169Z,62.98
2019-05-02T18:52:36.458Z,63.44
2019-05-02T18:54:55.840Z,64.29
2019-05-02T18:57:25.964Z,64.75
2019-05-02T18:59:51.965Z,65.74
2019-05-02T19:02:17.548Z,66.13
2019-05-02T19:04:43.401Z,66.36
2019-05-02T19:07:12.997Z,64.28
2019-05-02T19:09:48.440Z,66.37
2019-05-02T19:12:07.615Z,66.95
2019-05-02T19:14:33.153Z,67.48
2019-05-02T19:17:03.597Z,67.63
2019-05-02T19:19:31.966Z,69.61
2019-05-02T19:21:55.047Z,70.59
2019-05-02T19:24:22.682Z,73.19
2019-05-02T19:26:49.665Z,72.46
2019-05-02T19:29:22.115Z,73.13
2019-05-02T19:31:49.283Z,72.74
2019-05-02T19:34:16.936Z,72.43
2019-05-02T19:36:43.588Z,70.91
2019-05-02T19:39:10.029Z,70.97
2019-05-02T19:41:39.083Z,72.64
2019-05-02T19:44:04.033Z,74.65
2019-05-02T19:46:34.568Z,79.72
2019-05-02T19:48:58.007Z,80.56
2019-05-02T19:51:23.865Z,77.66
2019-05-02T19:53:53.507Z,76.97
2019-05-02T19:56:17.763Z,82.24
2019-05-02T19:58:46.604Z,80.36
2019-05-02T20:01:12.653Z,76.72
2019-05-02T20:03:38.797Z,76.32
2019-05-02T20:06:06.245Z,76.41
2019-05-02T20:08:32.804Z,76.38
2019-05-02T20:10:58.895Z,77.04
2019-05-02T20:13:29.849Z,77.08
2019-05-02T20:16:12.010Z,77.37
2019-05-02T20:18:43.810Z,77.96
2019-05-02T20:21:23.283Z,78.37
2019-05-02T20:23:43.257Z,79.74
2019-05-02T20:26:15.079Z,80.75
2019-05-02T20:28:37.321Z,79.14
2019-05-02T20:31:03.255Z,78.76
2019-05-02T20:33:29.109Z,78.68
2019-05-02T20:35:55.057Z,79.38
2019-05-02T20:38:21.942Z,80.29
2019-05-02T20:40:48.071Z,83.89
2019-05-02T20:43:13.914Z,85.96
2019-05-02T20:45:39.759Z,86.21
2019-05-02T20:48:05.724Z,84.24
2019-05-02T20:50:31.918Z,84.39
2019-05-02T20:52:57.821Z,85.30
2019-05-02T20:55:23.689Z,85.73
2019-05-02T20:57:49.529Z,87.59
2019-05-02T21:00:28.173Z,89.78
2019-05-02T21:02:54.031Z,91.52
2019-05-02T21:05:23.176Z,96.15
2019-05-02T21:07:52.487Z,98.27
2019-05-02T21:10:21.739Z,95.49
2019-05-02T21:12:47.844Z,92.61
2019-05-02T21:15:13.779Z,90.99
2019-05-02T21:17:39.708Z,89.65
2019-05-02T21:20:05.771Z,89.17
2019-05-02T21:22:32.765Z,89.28
2019-05-02T21:24:58.783Z,93.56
2019-05-02T21:27:24.712Z,94.67
2019-05-02T21:29:52.228Z,95.50
2019-05-02T21:32:18.285Z,93.81
2019-05-02T21:34:44.231Z,93.48
2019-05-02T21:37:10.164Z,92.39
2019-05-02T21:39:36.105Z,92.21
2019-05-02T21:42:02.392Z,92.44
2019-05-02T21:44:28.266Z,95.96
2019-05-02T21:46:54.333Z,93.15
2019-05-02T21:49:38.481Z,93.79
2019-05-02T21:52:24.157Z,92.53
2019-05-02T21:54:52.259Z,92.35
2019-05-02T21:57:19.555Z,92.35
2019-05-02T21:59:45.409Z,91.70
2019-05-02T22:02:12.080Z,92.82
2019-05-02T22:04:39.000Z,95.04
2019-05-02T22:07:05.068Z,92.45
2019-05-02T22:09:32.311Z,90.68
2019-05-02T22:11:58.384Z,88.14
2019-05-02T22:14:24.225Z,88.69
2019-05-02T22:16:50.174Z,88.20
2019-05-02T22:19:16.113Z,87.96
2019-05-02T22:21:43.024Z,87.84
2019-05-02T22:24:13.682Z,86.90
2019-05-02T22:26:36.975Z,84.48
2019-05-02T22:29:03.033Z,84.48
2019-05-02T22:31:28.950Z,81.53
2019-05-02T22:33:54.893Z,81.53
2019-05-02T22:36:21.801Z,81.72
2019-05-02T22:39:05.961Z,84.44
2019-05-02T22:41:32.567Z,84.44
2019-05-02T22:43:58.688Z,85.95
2019-05-02T22:46:43.771Z,85.74
2019-05-02T22:49:11.519Z,83.80
2019-05-02T22:51:38.313Z,88.41
2019-05-02T22:54:04.251Z,88.41
2019-05-02T22:56:31.719Z,89.44
2019-05-02T22:58:57.723Z,83.14
2019-05-02T23:01:23.589Z,83.14
2019-05-02T23:03:49.417Z,81.82
2019-05-02T23:06:15.372Z,80.99
2019-05-02T23:08:43.372Z,79.32
2019-05-02T23:11:09.171Z,78.93
2019-05-02T23:13:35.192Z,80.32
2019-05-02T23:16:02.909Z,78.62
2019-05-02T23:18:28.805Z,78.50
2019-05-02T23:20:54.665Z,78.44
2019-05-02T23:23:21.545Z,78.98
2019-05-02T23:26:02.236Z,79.22
2019-05-02T23:28:31.793Z,79.13
2019-05-02T23:30:57.750Z,79.08
2019-05-02T23:33:25.602Z,79.08
2019-05-02T23:35:52.164Z,80.21
2019-05-02T23:38:18.189Z,80.21
2019-05-02T23:40:44.010Z,81.67
2019-05-02T23:43:10.160Z,82.47
2019-05-02T23:45:36.016Z,83.53
2019-05-02T23:48:02.753Z,84.18
2019-05-02T23:50:28.796Z,85.93
2019-05-02T23:52:54.763Z,86.84
2019-05-02T23:55:22.707Z,86.84
2019-05-02T23:57:48.744Z,87.78
